Time;durP1;ratioP1;P1;durP2;ratioP2;P2;SDS_P1;SDS_P2;PMS_P1;PMS_P2;Temp;Humidity;BMP_temperature;BMP_pressure;BME280_temperature;BME280_humidity;BME280_pressure;Samples;Min_cycle;Max_cycle;Signal;HPM_P1;HPM_P2
2023/09/23 00:03:45;;;;;;;13.00;11.70;;;;;;;15.53;89.11;98047.54;225949;1277;138596;-76
2023/09/23 00:08:48;;;;;;;8.00;7.30;;;;;;;15.43;88.86;98039.30;226188;1278;22533;-75
2023/09/23 00:13:51;;;;;;;8.60;7.60;;;;;;;15.26;88.69;98043.42;225983;1275;137987;-75
2023/09/23 00:18:53;;;;;;;9.20;8.30;;;;;;;15.14;88.83;98057.08;225944;1275;138287;-76
2023/09/23 00:23:57;;;;;;;9.40;8.40;;;;;;;15.05;88.86;98078.13;225835;1278;138977;-76
2023/09/23 00:28:59;;;;;;;11.10;9.40;;;;;;;15.00;88.89;98077.16;225897;1262;139215;-76
2023/09/23 00:34:01;;;;;;;9.70;8.70;;;;;;;14.98;89.12;98076.77;226039;1275;138444;-77
2023/09/23 00:39:03;;;;;;;8.60;7.40;;;;;;;14.94;88.81;98081.42;225978;1278;22536;-75
2023/09/23 00:44:07;;;;;;;8.20;7.00;;;;;;;14.90;88.80;98084.97;226024;1278;138336;-76
2023/09/23 00:49:09;;;;;;;8.60;7.80;;;;;;;14.86;88.88;98078.11;226097;1275;138074;-76
2023/09/23 00:54:13;;;;;;;9.00;8.20;;;;;;;14.84;89.31;98076.06;226027;1278;138337;-76
2023/09/23 00:59:17;;;;;;;7.00;6.40;;;;;;;14.82;89.03;98086.89;226078;1278;138275;-76
2023/09/23 01:04:19;;;;;;;6.40;5.80;;;;;;;14.78;89.16;98075.85;226114;1272;138217;-76
2023/09/23 01:09:22;;;;;;;5.80;5.30;;;;;;;14.73;89.20;98084.82;226064;1276;138441;-76
2023/09/23 01:14:25;;;;;;;4.90;4.50;;;;;;;14.71;89.16;98086.77;226095;1279;22562;-76
2023/09/23 01:19:29;;;;;;;4.70;4.20;;;;;;;14.68;88.84;98085.58;225879;1278;138054;-76
2023/09/23 01:24:32;;;;;;;5.40;4.00;;;;;;;14.66;88.79;98087.08;225821;1278;137640;-76
2023/09/23 01:29:34;;;;;;;3.80;3.50;;;;;;;14.66;88.85;98094.56;225925;1278;138312;-76
2023/09/23 01:34:37;;;;;;;3.90;3.30;;;;;;;14.66;89.11;98096.90;225973;1278;138265;-76
2023/09/23 01:39:41;;;;;;;3.30;3.10;;;;;;;14.65;89.06;98111.72;225673;1279;216061;-75
2023/09/23 01:44:44;;;;;;;3.70;3.40;;;;;;;14.65;89.08;98120.67;226002;1280;22547;-76
2023/09/23 01:49:46;;;;;;;3.50;3.20;;;;;;;14.64;88.94;98113.70;225893;1278;138879;-76
2023/09/23 01:54:48;;;;;;;3.10;2.90;;;;;;;14.63;89.09;98113.58;225928;1278;138037;-76
2023/09/23 01:59:50;;;;;;;3.00;2.80;;;;;;;14.65;88.98;98111.39;225942;1278;138490;-75
2023/09/23 02:04:53;;;;;;;3.10;2.80;;;;;;;14.65;89.10;98122.92;225860;1278;139639;-76
2023/09/23 02:09:55;;;;;;;2.50;2.30;;;;;;;14.65;88.93;98112.78;225889;1280;138417;-75
2023/09/23 02:14:57;;;;;;;2.30;2.10;;;;;;;14.66;89.04;98109.45;226094;1280;22698;-76
2023/09/23 02:19:59;;;;;;;2.30;2.20;;;;;;;14.66;88.98;98097.70;225984;1276;138254;-76
2023/09/23 02:25:01;;;;;;;2.30;2.10;;;;;;;14.66;88.92;98100.63;225934;1278;138102;-76
2023/09/23 02:30:09;;;;;;;2.10;2.00;;;;;;;14.64;88.84;98109.65;226019;1278;138392;-76
2023/09/23 02:35:15;;;;;;;3.50;2.10;;;;;;;14.63;89.01;98118.35;226068;1256;138384;-76
2023/09/23 02:40:17;;;;;;;2.00;1.90;;;;;;;14.65;88.89;98110.79;225968;1280;138122;-76
2023/09/23 02:45:22;;;;;;;2.20;2.10;;;;;;;14.65;89.06;98113.68;226055;1279;138242;-76
2023/09/23 02:50:25;;;;;;;2.20;2.00;;;;;;;14.68;88.96;98129.80;225964;1280;26082;-76
2023/09/23 02:55:28;;;;;;;4.50;2.70;;;;;;;14.70;89.07;98139.20;225829;1278;138415;-77
2023/09/23 03:00:32;;;;;;;2.90;2.70;;;;;;;14.73;89.11;98149.38;225973;1278;138226;-77
2023/09/23 03:05:38;;;;;;;2.50;2.30;;;;;;;14.76;89.10;98138.23;225947;1279;138337;-76
2023/09/23 03:10:44;;;;;;;2.90;2.70;;;;;;;14.79;89.28;98143.31;226071;1278;138948;-76
2023/09/23 03:15:50;;;;;;;2.90;2.70;;;;;;;14.80;89.11;98160.73;225969;1278;139281;-75
2023/09/23 03:20:53;;;;;;;4.10;3.70;;;;;;;14.81;89.16;98172.66;226082;1278;22548;-76
2023/09/23 03:25:56;;;;;;;3.60;3.30;;;;;;;14.81;89.13;98192.77;226074;1275;137894;-76
2023/09/23 03:31:01;;;;;;;3.40;3.10;;;;;;;14.83;89.03;98209.00;225998;1278;138169;-76
2023/09/23 03:36:08;;;;;;;3.40;3.10;;;;;;;14.83;88.98;98213.67;225832;1275;138365;-76
2023/09/23 03:41:11;;;;;;;3.60;3.30;;;;;;;14.84;88.99;98214.27;225773;1279;138316;-76
2023/09/23 03:46:16;;;;;;;3.50;3.20;;;;;;;14.85;89.09;98217.10;225745;1280;139000;-77
2023/09/23 03:51:19;;;;;;;3.80;3.50;;;;;;;14.88;89.22;98226.66;225991;1279;138246;-76
2023/09/23 03:56:24;;;;;;;4.00;3.60;;;;;;;14.91;89.37;98218.52;226201;1276;22533;-76
2023/09/23 04:01:27;;;;;;;3.80;3.50;;;;;;;14.92;89.40;98223.41;226077;1278;138186;-76
2023/09/23 04:06:30;;;;;;;3.20;3.00;;;;;;;14.92;89.24;98221.05;225931;1280;138474;-76
2023/09/23 04:11:32;;;;;;;3.80;3.30;;;;;;;14.92;89.29;98218.77;226068;1273;138294;-75
2023/09/23 04:16:34;;;;;;;3.30;3.00;;;;;;;14.92;88.99;98213.56;226125;1270;138415;-76
2023/09/23 04:21:36;;;;;;;3.30;3.10;;;;;;;14.92;89.08;98221.05;225925;1278;138232;-75
2023/09/23 04:26:39;;;;;;;3.00;2.70;;;;;;;14.89;89.01;98224.02;226077;1279;22563;-76
2023/09/23 04:31:41;;;;;;;4.10;3.00;;;;;;;14.88;88.93;98231.58;226002;1278;138082;-75
2023/09/23 04:36:44;;;;;;;3.30;3.00;;;;;;;14.85;88.91;98218.61;225740;1276;138216;-76
2023/09/23 04:41:46;;;;;;;3.90;3.60;;;;;;;14.83;88.96;98237.02;226012;1280;138756;-76
2023/09/23 04:46:48;;;;;;;5.20;4.80;;;;;;;14.83;88.92;98262.40;225780;1278;138219;-75
2023/09/23 04:51:50;;;;;;;8.40;7.60;;;;;;;14.85;89.26;98257.16;225891;1280;138238;-76
2023/09/23 04:56:53;;;;;;;9.10;8.20;;;;;;;14.86;89.12;98244.90;226075;1280;25271;-76
2023/09/23 05:01:56;;;;;;;9.00;8.10;;;;;;;14.86;89.30;98248.14;226026;1276;138040;-75
2023/09/23 05:07:00;;;;;;;10.50;9.40;;;;;;;14.88;89.07;98259.36;225971;1279;138666;-76
2023/09/23 05:12:03;;;;;;;11.40;10.10;;;;;;;14.88;89.37;98265.01;226119;1279;138458;-76
2023/09/23 05:17:05;;;;;;;12.90;11.40;;;;;;;14.86;89.15;98274.48;225755;1279;138631;-76
2023/09/23 05:22:08;;;;;;;13.20;11.80;;;;;;;14.85;89.33;98285.67;226008;1279;138714;-76
2023/09/23 05:27:10;;;;;;;15.80;14.00;;;;;;;14.83;89.35;98285.75;226139;1276;22536;-75
2023/09/23 05:32:12;;;;;;;19.00;14.00;;;;;;;14.83;89.20;98280.48;225814;1278;138490;-75
2023/09/23 05:37:14;;;;;;;16.40;13.80;;;;;;;14.85;89.36;98270.58;225905;1280;138399;-76
2023/09/23 05:42:20;;;;;;;15.70;12.80;;;;;;;14.91;89.67;98288.91;225913;1276;138626;-75
2023/09/23 05:47:23;;;;;;;15.20;11.60;;;;;;;14.98;89.52;98307.09;225867;1280;138758;-76
2023/09/23 05:52:25;;;;;;;12.30;11.00;;;;;;;15.02;89.48;98315.95;225920;1277;138924;-76
2023/09/23 05:57:28;;;;;;;15.60;12.70;;;;;;;15.03;89.32;98306.08;225868;1279;138734;-76
2023/09/23 06:02:30;;;;;;;14.90;12.60;;;;;;;15.02;89.48;98324.05;226039;1279;22541;-76
2023/09/23 06:07:32;;;;;;;21.00;14.60;;;;;;;15.01;89.37;98323.75;226044;1276;139280;-76
2023/09/23 06:12:35;;;;;;;19.10;14.60;;;;;;;14.96;89.09;98319.75;225809;1280;139313;-76
2023/09/23 06:17:37;;;;;;;21.80;15.20;;;;;;;14.92;89.42;98330.98;225931;1273;138780;-76
2023/09/23 06:22:40;;;;;;;17.10;14.00;;;;;;;14.92;89.79;98339.08;225919;1279;138583;-76
2023/09/23 06:27:42;;;;;;;18.50;13.20;;;;;;;14.94;89.78;98359.55;225841;1276;138732;-76
2023/09/23 06:32:44;;;;;;;19.30;14.40;;;;;;;14.95;89.80;98376.86;226189;1280;22560;-76
2023/09/23 06:37:46;;;;;;;15.00;13.40;;;;;;;14.99;90.04;98376.13;225758;1280;139816;-76
2023/09/23 06:42:49;;;;;;;15.60;12.50;;;;;;;15.07;89.98;98378.73;225735;1276;138400;-75
2023/09/23 06:47:51;;;;;;;12.40;11.10;;;;;;;15.14;90.09;98389.13;225571;1276;138711;-76
2023/09/23 06:52:53;;;;;;;13.30;10.50;;;;;;;15.21;89.58;98396.70;225580;1269;138712;-76
2023/09/23 06:57:55;;;;;;;11.70;10.50;;;;;;;15.25;89.45;98412.09;225535;1261;138667;-79
2023/09/23 07:02:57;;;;;;;10.40;8.90;;;;;;;15.28;89.46;98428.99;225852;1273;22557;-78
2023/09/23 07:07:59;;;;;;;9.20;8.30;;;;;;;15.29;89.43;98432.56;225607;1276;138848;-78
2023/09/23 07:13:05;;;;;;;9.60;8.70;;;;;;;15.28;89.30;98434.48;225585;1272;138080;-76
2023/09/23 07:18:08;;;;;;;8.20;7.50;;;;;;;15.29;89.35;98431.83;225706;1260;138781;-75
2023/09/23 07:23:10;;;;;;;10.00;9.10;;;;;;;15.33;89.11;98432.95;225650;1276;138373;-75
2023/09/23 07:28:12;;;;;;;10.00;9.00;;;;;;;15.39;89.25;98448.29;225767;1257;138818;-75
2023/09/23 07:33:14;;;;;;;12.10;10.80;;;;;;;15.43;89.08;98463.88;225865;1275;22553;-74
2023/09/23 07:38:16;;;;;;;9.60;8.70;;;;;;;15.47;89.23;98472.08;225629;1272;22527;-75
2023/09/23 07:43:18;;;;;;;10.50;9.40;;;;;;;15.50;89.09;98474.77;225720;1274;138507;-76
2023/09/23 07:48:20;;;;;;;10.50;9.50;;;;;;;15.55;88.87;98474.82;225710;1272;138717;-76
2023/09/23 07:53:22;;;;;;;9.00;8.20;;;;;;;15.64;88.68;98474.13;225711;1269;138392;-75
2023/09/23 07:58:24;;;;;;;10.90;9.30;;;;;;;15.69;88.47;98478.92;225542;1260;138500;-76
2023/09/23 08:03:28;;;;;;;10.70;9.70;;;;;;;15.73;88.56;98479.53;225374;1273;138467;-76
2023/09/23 08:08:30;;;;;;;9.90;8.90;;;;;;;15.74;88.66;98478.38;225477;1269;24438;-75
2023/09/23 08:13:32;;;;;;;9.40;8.60;;;;;;;15.76;88.59;98487.45;225223;1260;138171;-74
2023/09/23 08:18:34;;;;;;;9.30;7.90;;;;;;;15.81;88.52;98492.59;225062;1256;138398;-74
2023/09/23 08:23:36;;;;;;;8.60;7.60;;;;;;;15.82;88.45;98500.77;225098;1264;138267;-74
2023/09/23 08:28:39;;;;;;;8.40;7.20;;;;;;;15.85;88.23;98502.02;225519;1260;138264;-74
2023/09/23 08:33:41;;;;;;;8.70;7.70;;;;;;;15.91;88.40;98503.75;225568;1257;139147;-73
2023/09/23 08:38:43;;;;;;;8.20;7.40;;;;;;;15.95;87.97;98520.41;225823;1272;22961;-75
2023/09/23 08:43:50;;;;;;;10.00;8.90;;;;;;;15.95;88.28;98518.98;225603;1267;137918;-75
2023/09/23 08:48:53;;;;;;;8.40;7.00;;;;;;;16.01;88.55;98526.27;225582;1257;138426;-75
2023/09/23 08:53:56;;;;;;;8.10;7.30;;;;;;;16.04;88.31;98519.52;225633;1276;138593;-74
2023/09/23 08:58:58;;;;;;;7.50;6.80;;;;;;;16.15;88.31;98503.69;225565;1273;138346;-75
2023/09/23 09:04:00;;;;;;;8.10;6.40;;;;;;;16.33;88.31;98503.79;225737;1279;138281;-75
2023/09/23 09:09:03;;;;;;;6.00;5.10;;;;;;;16.46;87.77;98512.42;225727;1265;22567;-75
2023/09/23 09:14:05;;;;;;;5.20;4.70;;;;;;;16.55;87.47;98522.85;225761;1276;138021;-75
2023/09/23 09:19:07;;;;;;;5.40;4.90;;;;;;;16.61;87.06;98529.83;225691;1272;138431;-76
2023/09/23 09:24:09;;;;;;;5.50;5.00;;;;;;;16.64;86.97;98521.77;225626;1276;138296;-75
2023/09/23 09:29:12;;;;;;;4.40;4.00;;;;;;;16.75;86.80;98513.40;225597;1273;139105;-76
2023/09/23 09:34:18;;;;;;;5.40;4.90;;;;;;;16.92;86.75;98520.60;225508;1280;138271;-75
2023/09/23 09:39:35;;;;;;;6.10;5.60;;;;;;;17.06;86.64;98520.57;225509;1278;138352;-76
2023/09/23 09:44:38;;;;;;;7.50;6.80;;;;;;;17.15;85.91;98513.23;225684;1268;22535;-77
2023/09/23 09:49:42;;;;;;;6.90;6.30;;;;;;;17.25;85.95;98520.70;225653;1275;137842;-76
2023/09/23 09:54:46;;;;;;;8.10;7.40;;;;;;;17.37;85.62;98518.13;225480;1273;141350;-76
2023/09/23 09:59:52;;;;;;;8.20;7.50;;;;;;;17.48;85.60;98522.37;225445;1273;139096;-77
2023/09/23 10:05:02;;;;;;;7.30;6.70;;;;;;;17.53;85.40;98524.10;225359;1263;138855;-77
2023/09/23 10:10:13;;;;;;;;;;;;;;;17.54;84.91;98523.11;225460;1272;139131;-77
2023/09/23 10:15:26;;;;;;;7.30;6.70;;;;;;;17.52;84.76;98528.45;225445;1264;22536;-77
2023/09/23 10:20:33;;;;;;;6.70;6.10;;;;;;;17.47;84.85;98521.60;225236;1278;22543;-77
2023/09/23 10:25:37;;;;;;;6.80;6.20;;;;;;;17.38;84.57;98523.77;225114;1279;138290;-77
2023/09/23 10:30:39;;;;;;;6.40;5.90;;;;;;;17.29;84.60;98534.55;225307;1275;138305;-77
2023/09/23 10:35:41;;;;;;;7.80;7.10;;;;;;;17.26;84.84;98544.10;225593;1274;137652;-76
2023/09/23 10:40:49;;;;;;;5.90;5.40;;;;;;;17.17;84.31;98555.62;225417;1272;138243;-76
2023/09/23 10:45:53;;;;;;;6.10;5.60;;;;;;;17.09;84.41;98558.20;225357;1275;138361;-77
2023/09/23 10:50:55;;;;;;;5.30;4.30;;;;;;;17.08;84.58;98566.52;225473;1272;22671;-76
2023/09/23 10:55:58;;;;;;;4.00;3.50;;;;;;;17.03;84.51;98569.14;225367;1276;138037;-76
2023/09/23 11:01:00;;;;;;;4.50;4.10;;;;;;;16.98;84.55;98572.61;225339;1259;138645;-77
2023/09/23 11:06:06;;;;;;;3.80;3.50;;;;;;;17.09;85.33;98573.28;225156;1260;138453;-75
2023/09/23 11:11:09;;;;;;;3.90;3.60;;;;;;;17.22;85.22;98590.36;225297;1272;138731;-75
2023/09/23 11:16:12;;;;;;;3.80;3.50;;;;;;;17.21;85.17;98590.35;225217;1276;138270;-75
2023/09/23 11:21:13;;;;;;;3.80;3.50;;;;;;;17.20;85.26;98574.95;225647;1260;22566;-75
2023/09/23 11:26:15;;;;;;;3.80;3.50;;;;;;;17.26;85.16;98577.83;225690;1279;137754;-75
2023/09/23 11:31:18;;;;;;;4.40;4.00;;;;;;;17.31;84.97;98582.34;225866;1277;138275;-75
2023/09/23 11:36:20;;;;;;;3.80;3.50;;;;;;;17.34;85.08;98582.29;225910;1279;138276;-75
2023/09/23 11:41:23;;;;;;;4.80;4.40;;;;;;;17.28;84.87;98576.92;225644;1279;138235;-75
2023/09/23 11:46:25;;;;;;;6.90;4.10;;;;;;;17.24;84.92;98575.55;225847;1266;138392;-75
2023/09/23 11:51:27;;;;;;;5.10;4.10;;;;;;;17.20;85.47;98573.67;225871;1275;138244;-75
2023/09/23 11:56:29;;;;;;;2.70;2.50;;;;;;;17.21;85.29;98578.06;225833;1280;22559;-74
2023/09/23 12:01:31;;;;;;;2.30;2.10;;;;;;;17.22;84.98;98572.23;225839;1276;138392;-74
2023/09/23 12:06:35;;;;;;;3.50;2.40;;;;;;;17.28;84.82;98574.30;225883;1275;138526;-74
2023/09/23 12:11:37;;;;;;;2.50;2.30;;;;;;;17.25;84.50;98580.13;225840;1277;138993;-75
2023/09/23 12:16:39;;;;;;;2.80;2.50;;;;;;;17.26;84.74;98586.94;225839;1276;138389;-75
2023/09/23 12:21:44;;;;;;;5.90;2.70;;;;;;;17.29;84.84;98589.98;225899;1275;140093;-75
2023/09/23 12:26:46;;;;;;;3.10;2.80;;;;;;;17.35;84.91;98596.48;225956;1275;22556;-75
2023/09/23 12:31:48;;;;;;;4.70;3.00;;;;;;;17.43;84.96;98614.40;225932;1275;137932;-74
2023/09/23 12:36:50;;;;;;;3.10;2.80;;;;;;;17.43;84.66;98620.14;225950;1275;138049;-74
2023/09/23 12:41:52;;;;;;;4.50;3.30;;;;;;;17.41;85.00;98614.80;225721;1279;138442;-75
2023/09/23 12:46:54;;;;;;;4.30;3.40;;;;;;;17.41;84.98;98615.33;225926;1272;138827;-75
2023/09/23 12:51:56;;;;;;;3.50;3.20;;;;;;;17.39;85.05;98620.05;225991;1275;138240;-75
2023/09/23 12:56:58;;;;;;;4.10;3.00;;;;;;;17.35;85.15;98632.02;225958;1276;22544;-75
2023/09/23 13:02:00;;;;;;;4.20;3.80;;;;;;;17.30;85.25;98635.89;225892;1278;137856;-75
2023/09/23 13:07:02;;;;;;;5.00;4.50;;;;;;;17.25;85.47;98631.45;225932;1275;138325;-74
2023/09/23 13:12:05;;;;;;;5.10;4.60;;;;;;;17.18;85.28;98640.88;225984;1275;138358;-75
2023/09/23 13:17:08;;;;;;;5.60;5.00;;;;;;;17.09;85.21;98646.16;225853;1279;138646;-75
2023/09/23 13:22:10;;;;;;;6.00;5.10;;;;;;;17.07;85.83;98656.68;225823;1279;138578;-75
2023/09/23 13:27:13;;;;;;;5.40;4.90;;;;;;;17.07;85.73;98653.36;226078;1276;22541;-75
2023/09/23 13:32:16;;;;;;;3.80;3.40;;;;;;;17.06;85.69;98653.36;225860;1277;138315;-75
2023/09/23 13:37:18;;;;;;;3.60;2.90;;;;;;;17.04;85.34;98656.46;225954;1277;138137;-75
2023/09/23 13:42:20;;;;;;;4.30;3.40;;;;;;;17.02;85.40;98662.94;225827;1276;214592;-74
2023/09/23 13:47:22;;;;;;;4.70;3.70;;;;;;;16.99;85.12;98675.52;225963;1272;138329;-75
2023/09/23 13:52:25;;;;;;;5.30;3.70;;;;;;;16.99;85.08;98686.65;225966;1266;138351;-76
2023/09/23 13:57:26;;;;;;;3.70;3.40;;;;;;;17.00;85.44;98696.81;225972;1275;138461;-74
2023/09/23 14:02:29;;;;;;;3.00;2.60;;;;;;;17.03;85.22;98708.23;226057;1275;22559;-74
2023/09/23 14:07:32;;;;;;;4.10;3.70;;;;;;;17.04;84.86;98711.95;225920;1277;138376;-74
2023/09/23 14:12:34;;;;;;;4.30;3.90;;;;;;;17.05;85.19;98704.05;225993;1276;138237;-74
2023/09/23 14:17:36;;;;;;;8.00;6.40;;;;;;;17.05;85.20;98696.86;225926;1276;138252;-75
2023/09/23 14:22:39;;;;;;;6.70;6.10;;;;;;;17.06;85.40;98707.48;225977;1278;138372;-74
2023/09/23 14:27:42;;;;;;;7.00;5.90;;;;;;;17.04;85.37;98705.00;225943;1275;138378;-74
2023/09/23 14:32:44;;;;;;;6.80;5.50;;;;;;;17.01;85.33;98708.29;225926;1278;22544;-74
2023/09/23 14:37:47;;;;;;;6.50;5.70;;;;;;;17.02;85.48;98707.88;225984;1275;138634;-74
2023/09/23 14:42:49;;;;;;;8.40;5.40;;;;;;;17.01;85.49;98712.12;225888;1278;138369;-73
2023/09/23 14:47:51;;;;;;;6.60;5.20;;;;;;;17.01;85.85;98714.42;226015;1274;138433;-74
2023/09/23 14:52:55;;;;;;;7.40;5.20;;;;;;;17.00;85.67;98721.21;225954;1272;138195;-74
2023/09/23 14:57:58;;;;;;;5.50;4.90;;;;;;;16.95;85.71;98727.51;225963;1279;138507;-74
2023/09/23 15:03:00;;;;;;;5.40;4.20;;;;;;;16.94;85.50;98728.06;226069;1277;22600;-74
2023/09/23 15:08:02;;;;;;;4.90;4.50;;;;;;;16.95;85.45;98734.83;225977;1276;138354;-74
2023/09/23 15:13:04;;;;;;;3.90;3.50;;;;;;;16.95;85.31;98743.78;225975;1278;138061;-74
2023/09/23 15:18:06;;;;;;;3.60;2.70;;;;;;;16.90;84.72;98755.79;225933;1273;138267;-74
2023/09/23 15:23:10;;;;;;;3.70;3.40;;;;;;;16.88;84.83;98771.59;226077;1275;138349;-74
2023/09/23 15:28:13;;;;;;;3.60;3.30;;;;;;;16.88;85.11;98778.11;226073;1275;138282;-74
2023/09/23 15:33:15;;;;;;;3.80;3.30;;;;;;;16.88;85.00;98783.61;226083;1272;22545;-74
2023/09/23 15:38:17;;;;;;;4.10;2.60;;;;;;;16.81;84.86;98795.65;225982;1278;138012;-74
2023/09/23 15:43:19;;;;;;;2.90;2.70;;;;;;;16.77;84.63;98794.00;225727;1279;138759;-74
2023/09/23 15:48:21;;;;;;;3.50;2.60;;;;;;;16.72;84.70;98817.46;225771;1278;138266;-73
2023/09/23 15:53:23;;;;;;;3.40;2.80;;;;;;;16.65;84.23;98823.33;226072;1278;138378;-74
2023/09/23 15:58:25;;;;;;;2.70;2.50;;;;;;;16.59;84.52;98827.42;226106;1276;138339;-74
2023/09/23 16:03:27;;;;;;;3.30;3.00;;;;;;;16.54;84.43;98825.42;226076;1279;138369;-74
2023/09/23 16:08:30;;;;;;;3.40;3.10;;;;;;;16.51;84.78;98833.98;225863;1273;22543;-73
2023/09/23 16:13:32;;;;;;;3.90;2.90;;;;;;;16.45;84.58;98839.70;225981;1276;137941;-73
2023/09/23 16:18:34;;;;;;;3.80;3.50;;;;;;;16.41;84.50;98840.77;226093;1277;138403;-75
2023/09/23 16:23:36;;;;;;;3.90;3.60;;;;;;;16.38;84.94;98832.80;226001;1279;138422;-74
2023/09/23 16:28:38;;;;;;;4.80;3.60;;;;;;;16.35;85.06;98839.98;225980;1276;138402;-74
2023/09/23 16:33:40;;;;;;;3.20;2.90;;;;;;;16.33;85.40;98835.16;226044;1276;138075;-73
2023/09/23 16:38:44;;;;;;;4.70;4.20;;;;;;;16.28;85.17;98849.76;226055;1278;22551;-74
2023/09/23 16:43:48;;;;;;;7.60;6.90;;;;;;;16.23;85.64;98858.04;225907;1275;138114;-74
2023/09/23 16:48:50;;;;;;;4.80;4.30;;;;;;;16.17;85.69;98855.94;226136;1275;138272;-74
2023/09/23 16:53:52;;;;;;;5.30;3.70;;;;;;;16.08;85.45;98871.08;226065;1278;138225;-74
2023/09/23 16:58:54;;;;;;;4.20;3.80;;;;;;;16.00;85.82;98881.55;225784;1280;139160;-74
2023/09/23 17:03:56;;;;;;;5.80;4.30;;;;;;;15.96;85.94;98884.79;225984;1276;138279;-74
2023/09/23 17:08:59;;;;;;;5.60;4.70;;;;;;;15.95;85.99;98892.95;225941;1278;22609;-74
2023/09/23 17:14:02;;;;;;;7.50;5.60;;;;;;;15.92;85.87;98899.79;225929;1268;137865;-74
2023/09/23 17:19:04;;;;;;;12.40;11.10;;;;;;;15.83;85.63;98898.48;225918;1275;138265;-74
2023/09/23 17:24:07;;;;;;;5.50;4.90;;;;;;;15.78;86.02;98908.63;226007;1279;138779;-73
2023/09/23 17:29:09;;;;;;;5.90;5.30;;;;;;;15.71;86.28;98914.43;225968;1277;138279;-73
2023/09/23 17:34:11;;;;;;;5.70;5.10;;;;;;;15.64;86.43;98922.77;225736;1279;138205;-74
2023/09/23 17:39:13;;;;;;;8.00;6.70;;;;;;;15.58;86.79;98919.25;225878;1280;22551;-73
2023/09/23 17:44:15;;;;;;;7.70;6.50;;;;;;;15.51;86.86;98921.20;226019;1278;138270;-74
2023/09/23 17:49:17;;;;;;;7.10;6.40;;;;;;;15.45;87.12;98945.40;225890;1277;138216;-74
2023/09/23 17:54:20;;;;;;;8.40;7.60;;;;;;;15.37;87.14;98956.27;226055;1280;138434;-74
2023/09/23 17:59:22;;;;;;;9.50;8.20;;;;;;;15.32;87.34;98954.38;226047;1278;138829;-74
2023/09/23 18:04:24;;;;;;;9.50;8.20;;;;;;;15.29;87.66;98955.88;226039;1275;138467;-73
2023/09/23 18:09:26;;;;;;;9.40;8.50;;;;;;;15.27;88.22;98970.07;226049;1278;138242;-74
2023/09/23 18:14:28;;;;;;;9.40;8.40;;;;;;;15.24;88.19;98979.88;225914;1280;22550;-73
2023/09/23 18:19:30;;;;;;;10.90;8.60;;;;;;;15.22;88.43;98986.14;225777;1280;138259;-74
2023/09/23 18:24:33;;;;;;;9.20;8.30;;;;;;;15.25;88.69;98996.83;226016;1278;138482;-73
2023/09/23 18:29:35;;;;;;;8.80;7.90;;;;;;;15.27;88.52;99008.73;225825;1278;138236;-73
2023/09/23 18:34:37;;;;;;;11.30;10.00;;;;;;;15.30;88.57;99012.17;225827;1280;138679;-73
2023/09/23 18:39:40;;;;;;;8.10;7.40;;;;;;;15.32;88.71;99029.09;225791;1278;138625;-74
2023/09/23 18:44:42;;;;;;;7.50;6.80;;;;;;;15.31;88.35;99036.42;226040;1278;24257;-74
2023/09/23 18:49:45;;;;;;;8.10;7.30;;;;;;;15.24;88.02;99030.98;226019;1276;137915;-74
2023/09/23 18:54:47;;;;;;;9.50;7.60;;;;;;;15.15;88.22;99021.30;225960;1278;138086;-74
2023/09/23 18:59:49;;;;;;;9.20;8.30;;;;;;;15.10;88.52;99026.54;225914;1278;138417;-74
2023/09/23 19:04:52;;;;;;;9.30;8.40;;;;;;;15.05;88.69;99031.29;225774;1280;138312;-74
2023/09/23 19:09:55;;;;;;;9.90;8.90;;;;;;;15.03;88.54;99041.86;225966;1275;138324;-74
2023/09/23 19:14:58;;;;;;;11.70;9.80;;;;;;;15.02;89.05;99037.03;225945;1280;22611;-74
2023/09/23 19:20:00;;;;;;;12.20;10.10;;;;;;;15.04;89.38;99033.30;225914;1278;139089;-74
2023/09/23 19:25:04;;;;;;;15.00;13.50;;;;;;;15.04;89.25;99043.41;225993;1280;138540;-74
2023/09/23 19:30:07;;;;;;;14.70;13.20;;;;;;;15.02;89.36;99047.52;226069;1278;138781;-74
2023/09/23 19:35:09;;;;;;;15.70;13.90;;;;;;;15.02;89.52;99053.48;225848;1278;138569;-74
2023/09/23 19:40:12;;;;;;;16.20;14.50;;;;;;;15.05;89.90;99051.20;226089;1264;138643;-74
2023/09/23 19:45:17;;;;;;;15.50;13.90;;;;;;;15.07;89.80;99050.48;226058;1256;25323;-74
2023/09/23 19:50:20;;;;;;;8.20;7.50;;;;;;;15.08;89.85;99062.94;225941;1277;138450;-75
2023/09/23 19:55:23;;;;;;;7.10;5.80;;;;;;;15.06;89.21;99065.93;225910;1278;138253;-73
2023/09/23 20:00:27;;;;;;;5.50;5.00;;;;;;;14.99;88.51;99068.03;225950;1278;140648;-74
2023/09/23 20:05:30;;;;;;;5.50;4.20;;;;;;;14.93;88.24;99064.54;225774;1275;138295;-76
2023/09/23 20:10:34;;;;;;;5.30;4.80;;;;;;;14.88;88.09;99067.90;225933;1278;138251;-73
2023/09/23 20:15:37;;;;;;;5.60;4.00;;;;;;;14.82;87.47;99071.89;225994;1279;138379;-75
2023/09/23 20:20:39;;;;;;;4.50;4.10;;;;;;;14.74;87.29;99068.13;225810;1280;22556;-74
2023/09/23 20:25:41;;;;;;;4.60;3.80;;;;;;;14.68;87.26;99060.34;225963;1275;138067;-75
2023/09/23 20:30:48;;;;;;;4.20;3.70;;;;;;;14.63;86.96;99054.65;225767;1279;138177;-73
2023/09/23 20:35:51;;;;;;;4.50;3.50;;;;;;;14.58;86.69;99053.55;225932;1278;138340;-72
2023/09/23 20:41:01;;;;;;;3.90;3.40;;;;;;;14.54;86.69;99052.25;225937;1278;138381;-73
2023/09/23 20:46:09;;;;;;;4.00;3.50;;;;;;;14.52;86.68;99060.29;225804;1279;138204;-75
2023/09/23 20:51:12;;;;;;;4.00;3.00;;;;;;;14.49;86.57;99065.93;225774;1280;22537;-73
2023/09/23 20:56:14;;;;;;;4.60;3.00;;;;;;;14.46;86.66;99076.23;226081;1275;137858;-73
2023/09/23 21:01:16;;;;;;;3.40;3.10;;;;;;;14.44;86.59;99092.02;226109;1276;138388;-72
2023/09/23 21:06:18;;;;;;;3.80;3.10;;;;;;;14.42;86.50;99108.90;226025;1279;138371;-72
2023/09/23 21:11:26;;;;;;;3.30;2.90;;;;;;;14.43;86.24;99121.63;225879;1279;138233;-72
2023/09/23 21:16:30;;;;;;;2.60;2.40;;;;;;;14.43;86.30;99115.98;225934;1278;138166;-72
2023/09/23 21:21:32;;;;;;;2.70;2.50;;;;;;;14.43;85.96;99127.52;225969;1278;138593;-73
2023/09/23 21:26:35;;;;;;;3.10;2.20;;;;;;;14.42;85.94;99138.96;226063;1278;22545;-73
2023/09/23 21:31:37;;;;;;;3.10;2.20;;;;;;;14.41;85.91;99161.38;226037;1278;137995;-73
2023/09/23 21:36:39;;;;;;;3.80;2.60;;;;;;;14.39;85.78;99172.28;225827;1278;138533;-73
2023/09/23 21:41:41;;;;;;;4.00;2.40;;;;;;;14.36;85.55;99181.89;226021;1280;138186;-74
2023/09/23 21:46:48;;;;;;;3.10;2.10;;;;;;;14.35;85.47;99190.02;225835;1280;138861;-74
2023/09/23 21:51:50;;;;;;;2.50;1.90;;;;;;;14.35;85.34;99192.73;225939;1280;139844;-72
2023/09/23 21:56:52;;;;;;;3.10;2.30;;;;;;;14.34;85.23;99190.55;226012;1280;22540;-74
2023/09/23 22:01:54;;;;;;;2.80;2.40;;;;;;;14.33;85.25;99185.19;226063;1280;138030;-73
2023/09/23 22:06:56;;;;;;;2.60;2.30;;;;;;;14.30;84.94;99189.59;225909;1280;138268;-74
2023/09/23 22:11:58;;;;;;;3.00;2.60;;;;;;;14.25;84.93;99194.23;225891;1278;138902;-73
2023/09/23 22:17:00;;;;;;;5.20;2.20;;;;;;;14.21;84.97;99196.88;226000;1264;138218;-74
2023/09/23 22:22:02;;;;;;;2.70;2.10;;;;;;;14.17;85.03;99189.78;225807;1274;138446;-73
2023/09/23 22:27:05;;;;;;;2.50;2.30;;;;;;;14.12;84.97;99186.20;225965;1278;22570;-74
2023/09/23 22:32:07;;;;;;;2.70;2.50;;;;;;;14.04;85.00;99177.27;225928;1280;138103;-74
2023/09/23 22:37:09;;;;;;;3.10;2.80;;;;;;;13.94;85.03;99176.71;225916;1277;138327;-73
2023/09/23 22:42:11;;;;;;;3.40;2.50;;;;;;;13.83;85.08;99187.27;226051;1280;138427;-73
2023/09/23 22:47:13;;;;;;;4.60;3.00;;;;;;;13.74;85.25;99188.09;226049;1278;138433;-73
2023/09/23 22:52:15;;;;;;;4.00;2.20;;;;;;;13.65;85.28;99183.23;226050;1278;138270;-73
2023/09/23 22:57:17;;;;;;;3.00;2.50;;;;;;;13.56;85.33;99176.48;226032;1280;22539;-73
2023/09/23 23:02:20;;;;;;;3.50;2.20;;;;;;;13.45;85.45;99171.17;226003;1278;138511;-73
2023/09/23 23:07:22;;;;;;;3.10;2.50;;;;;;;13.33;85.52;99175.88;225985;1279;138051;-74
2023/09/23 23:12:24;;;;;;;2.40;2.20;;;;;;;13.22;85.32;99188.48;225957;1278;138590;-73